Durango, Spain
Current Conditions -  °F | °C
As of 11:00 AM on Sunday 23 Nov 2014 (Local Time) from LEBB Reporting Station
Clear Clear  
Wind Chill: 70°   Ceiling: Unl
Heat Index: 70°   Visibility: 6mi
Dew Point: 52°   Wind: 13mph
Humidity: 53%   Direction: 160°SSE
Pressure: 29.85"   Gusts: NA
Location:  43.17°N, 2.63°W
Report Text: LEBB 231000Z 16011KT 130V200 CAVOK 21/11 Q1011 NOSIG
Loading
Personal Weather Stations






























Interactive Weather Map New forecast layout! Learn more

10-Day Weather Forecast

Advertisements
Track Severe Weather on mobile